createdAt,value
2023-04-08T00:00:52.780Z,103033.22
2023-04-08T00:01:54.772Z,103054.28
2023-04-08T00:02:56.713Z,103044.63
2023-04-08T00:03:58.768Z,103050.94
2023-04-08T00:05:00.743Z,103042.91
2023-04-08T00:06:03.952Z,103044.81
2023-04-08T00:07:06.127Z,103040.31
2023-04-08T00:08:08.483Z,103047.50
2023-04-08T00:09:10.498Z,103049.31
2023-04-08T00:10:12.313Z,103053.91
2023-04-08T00:11:14.147Z,103051.22
2023-04-08T00:12:16.165Z,103050.44
2023-04-08T00:13:18.020Z,103044.53
2023-04-08T00:14:19.815Z,103057.66
2023-04-08T00:15:21.698Z,103057.16
2023-04-08T00:16:23.547Z,103054.19
2023-04-08T00:17:25.426Z,103042.06
2023-04-08T00:18:27.918Z,103053.31
2023-04-08T00:19:29.820Z,103052.47
2023-04-08T00:20:31.573Z,103052.56
2023-04-08T00:21:33.411Z,103046.31
2023-04-08T00:22:36.624Z,103050.91
2023-04-08T00:23:38.394Z,103058.00
2023-04-08T00:24:40.936Z,103042.28
2023-04-08T00:25:42.801Z,103052.72
2023-04-08T00:26:44.967Z,103052.72
2023-04-08T00:27:46.879Z,103054.50
2023-04-08T00:28:49.241Z,103053.75
2023-04-08T00:29:51.876Z,103051.94
2023-04-08T00:30:53.850Z,103049.34
2023-04-08T00:31:55.797Z,103052.13
2023-04-08T00:32:58.298Z,103044.94
2023-04-08T00:34:00.263Z,103048.56
2023-04-08T00:35:02.801Z,103039.69
2023-04-08T00:36:04.827Z,103031.09
2023-04-08T00:37:06.765Z,103047.81
2023-04-08T00:38:08.625Z,103038.06
2023-04-08T00:39:10.419Z,103044.38
2023-04-08T00:40:12.812Z,103037.28
2023-04-08T00:41:14.794Z,103037.66
2023-04-08T00:42:17.269Z,103040.34
2023-04-08T00:43:21.296Z,103045.69
2023-04-08T00:44:23.186Z,103038.69
2023-04-08T00:45:25.051Z,103044.66
2023-04-08T00:46:27.130Z,103053.66
2023-04-08T00:47:29.037Z,103048.38
2023-04-08T00:48:31.565Z,103051.06
2023-04-08T00:49:33.528Z,103055.47
2023-04-08T00:50:35.547Z,103057.38
2023-04-08T00:51:37.462Z,103057.38
2023-04-08T00:52:39.459Z,103057.38
2023-04-08T00:53:41.423Z,103046.25
2023-04-08T00:54:43.254Z,103045.50
2023-04-08T00:55:45.509Z,103059.28
2023-04-08T00:56:47.574Z,103058.41
2023-04-08T00:57:49.569Z,103055.81
2023-04-08T00:58:55.164Z,103045.50
2023-04-08T00:59:57.129Z,103059.34
2023-04-08T01:01:05.831Z,103040.97
2023-04-08T01:02:34.644Z,103061.88
2023-04-08T01:04:07.867Z,103059.84
2023-04-08T01:05:16.217Z,103046.66
2023-04-08T01:06:34.440Z,103060.81
2023-04-08T01:07:52.840Z,103062.53
2023-04-08T01:08:54.709Z,103059.97
2023-04-08T01:09:59.316Z,103056.69
2023-04-08T01:11:03.687Z,103052.38
2023-04-08T01:12:09.356Z,103044.03
2023-04-08T01:13:14.545Z,103058.78
2023-04-08T01:14:25.304Z,103053.53
2023-04-08T01:15:29.159Z,103054.47
2023-04-08T01:16:31.057Z,103056.09
2023-04-08T01:17:34.438Z,103054.47
2023-04-08T01:18:37.313Z,103051.03
2023-04-08T01:19:42.350Z,103042.75
2023-04-08T01:20:45.335Z,103034.91
2023-04-08T01:21:48.519Z,103041.81
2023-04-08T01:23:21.096Z,103062.59
2023-04-08T01:24:36.673Z,103067.56
2023-04-08T01:25:39.572Z,103062.41
2023-04-08T01:26:42.173Z,103058.09
2023-04-08T01:27:44.698Z,103060.00
2023-04-08T01:28:46.757Z,103059.25
2023-04-08T01:29:49.541Z,103053.97
2023-04-08T01:30:52.336Z,103059.44
2023-04-08T01:31:56.282Z,103057.72
2023-04-08T01:33:01.929Z,103060.38
2023-04-08T01:34:06.513Z,103044.66
2023-04-08T01:35:09.909Z,103055.03
2023-04-08T01:36:12.271Z,103057.72
2023-04-08T01:37:15.841Z,103049.84
2023-04-08T01:38:20.501Z,103049.84
2023-04-08T01:39:25.536Z,103050.63
2023-04-08T01:40:27.554Z,103048.91
2023-04-08T01:41:30.449Z,103051.59
2023-04-08T01:42:35.406Z,103044.47
2023-04-08T01:43:40.316Z,103053.47
2023-04-08T01:44:42.773Z,103055.19
2023-04-08T01:45:47.129Z,103042.28
2023-04-08T01:46:49.828Z,103053.47
2023-04-08T01:47:53.232Z,103061.59
2023-04-08T01:48:55.919Z,103060.72
2023-04-08T01:49:59.898Z,103062.75
2023-04-08T01:51:03.684Z,103059.88
2023-04-08T01:52:06.752Z,103057.19
2023-04-08T01:53:10.204Z,103060.91
2023-04-08T01:54:12.049Z,103057.28
2023-04-08T01:55:14.068Z,103062.63
2023-04-08T01:56:16.663Z,103048.06
2023-04-08T01:57:24.371Z,103064.53
2023-04-08T01:58:31.440Z,103067.13
2023-04-08T01:59:36.673Z,103064.47
2023-04-08T02:00:40.970Z,103066.25
2023-04-08T02:01:45.568Z,103068.94
2023-04-08T02:02:48.619Z,103068.09
2023-04-08T02:03:52.315Z,103063.75
2023-04-08T02:04:55.188Z,103070.94
2023-04-08T02:05:57.002Z,103063.75
2023-04-08T02:06:59.284Z,103070.06
2023-04-08T02:08:01.428Z,103073.63
2023-04-08T02:09:04.287Z,103064.72
2023-04-08T02:10:06.693Z,103070.19
2023-04-08T02:11:08.502Z,103062.16
2023-04-08T02:12:10.865Z,103068.34
2023-04-08T02:13:12.751Z,103066.63
2023-04-08T02:14:14.567Z,103063.94
2023-04-08T02:15:16.955Z,103058.78
2023-04-08T02:16:34.281Z,103062.34
2023-04-08T02:18:00.868Z,103057.47
2023-04-08T02:19:10.076Z,103055.56
2023-04-08T02:20:18.764Z,103058.34
2023-04-08T02:21:27.112Z,103059.38
2023-04-08T02:22:38.155Z,103055.72
2023-04-08T02:23:41.526Z,103057.56
2023-04-08T02:24:44.644Z,103044.72
2023-04-08T02:25:48.290Z,103060.50
2023-04-08T02:26:54.358Z,103051.97
2023-04-08T02:27:57.384Z,103057.81
2023-04-08T02:29:00.392Z,103049.91
2023-04-08T02:30:05.885Z,103052.66
2023-04-08T02:31:13.692Z,103051.81
2023-04-08T02:32:20.880Z,103057.31
2023-04-08T02:33:24.013Z,103052.13
2023-04-08T02:34:28.010Z,103058.00
2023-04-08T02:35:31.196Z,103063.47
2023-04-08T02:36:34.262Z,103058.97
2023-04-08T02:37:38.934Z,103056.28
2023-04-08T02:38:40.809Z,103063.53
2023-04-08T02:39:43.703Z,103060.94
2023-04-08T02:40:46.579Z,103070.69
2023-04-08T02:41:48.380Z,103068.88
2023-04-08T02:42:50.518Z,103059.50
2023-04-08T02:43:55.560Z,103070.78
2023-04-08T02:44:57.690Z,103056.81
2023-04-08T02:46:03.571Z,103059.56
2023-04-08T02:47:05.791Z,103069.91
2023-04-08T02:48:10.634Z,103081.50
2023-04-08T02:49:12.421Z,103078.03
2023-04-08T02:50:14.495Z,103073.53
2023-04-08T02:51:16.502Z,103071.81
2023-04-08T02:52:18.741Z,103069.25
2023-04-08T02:53:20.885Z,103073.66
2023-04-08T02:54:22.745Z,103061.59
2023-04-08T02:55:24.579Z,103080.91
2023-04-08T02:56:26.536Z,103080.03
2023-04-08T02:57:28.322Z,103072.88
2023-04-08T02:58:30.557Z,103064.34
2023-04-08T02:59:32.336Z,103067.72
2023-04-08T03:00:34.190Z,103060.44
2023-04-08T03:01:36.159Z,103066.75
2023-04-08T03:02:38.104Z,103064.06
2023-04-08T03:03:40.063Z,103056.22
2023-04-08T03:04:41.965Z,103062.34
2023-04-08T03:05:43.778Z,103050.28
2023-04-08T03:06:45.843Z,103039.66
2023-04-08T03:07:47.668Z,103060.72
2023-04-08T03:08:49.741Z,103057.19
2023-04-08T03:09:51.902Z,103059.84
2023-04-08T03:10:53.712Z,103061.66
2023-04-08T03:11:55.569Z,103065.28
2023-04-08T03:12:57.424Z,103060.81
2023-04-08T03:13:59.430Z,103065.28
2023-04-08T03:15:01.919Z,103062.59
2023-04-08T03:16:03.835Z,103067.00
2023-04-08T03:17:05.626Z,103074.19
2023-04-08T03:18:07.673Z,103076.09
2023-04-08T03:19:09.491Z,103070.63
2023-04-08T03:20:11.912Z,103065.47
2023-04-08T03:21:13.691Z,103058.63
2023-04-08T03:22:15.603Z,103069.97
2023-04-08T03:23:17.412Z,103083.25
2023-04-08T03:24:19.286Z,103078.00
2023-04-08T03:25:21.149Z,103072.53
2023-04-08T03:26:22.946Z,103080.66
2023-04-08T03:27:25.008Z,103083.41
2023-04-08T03:28:26.787Z,103088.69
2023-04-08T03:29:28.751Z,103079.78
2023-04-08T03:30:31.240Z,103078.94
2023-04-08T03:31:33.549Z,103078.94
2023-04-08T03:32:35.451Z,103074.78
2023-04-08T03:33:37.242Z,103088.75
2023-04-08T03:34:39.192Z,103082.56
2023-04-08T03:35:41.118Z,103086.19
2023-04-08T03:36:43.086Z,103082.56
2023-04-08T03:37:44.900Z,103070.28
2023-04-08T03:38:46.707Z,103073.06
2023-04-08T03:39:48.494Z,103083.59
2023-04-08T03:40:50.809Z,103038.53
2023-04-08T03:41:52.629Z,103069.44
2023-04-08T03:42:54.433Z,103081.00
2023-04-08T03:43:56.443Z,103077.47
2023-04-08T03:44:58.666Z,103066.78
2023-04-08T03:46:00.535Z,103070.41
2023-04-08T03:47:02.323Z,103073.06
2023-04-08T03:48:04.541Z,103080.16
2023-04-08T03:49:07.446Z,103066.84
2023-04-08T03:50:09.723Z,103067.72
2023-04-08T03:51:11.533Z,103065.44
2023-04-08T03:52:13.405Z,103079.25
2023-04-08T03:53:15.299Z,103082.88
2023-04-08T03:54:17.141Z,103076.75
2023-04-08T03:55:19.025Z,103071.75
2023-04-08T03:56:20.843Z,103081.16
2023-04-08T03:57:22.654Z,103095.50
2023-04-08T03:58:24.445Z,103088.41
2023-04-08T03:59:26.388Z,103095.50
2023-04-08T04:00:28.349Z,103091.00
2023-04-08T04:01:32.389Z,103087.00
2023-04-08T04:02:34.422Z,103072.88
2023-04-08T04:03:36.559Z,103089.38
2023-04-08T04:04:38.752Z,103084.97
2023-04-08T04:05:41.238Z,103092.03
2023-04-08T04:06:43.101Z,103088.41
2023-04-08T04:07:44.926Z,103072.88
2023-04-08T04:08:46.793Z,103090.31
2023-04-08T04:09:48.742Z,103088.59
2023-04-08T04:10:51.603Z,103089.50
2023-04-08T04:11:53.422Z,103093.00
2023-04-08T04:12:55.229Z,103085.06
2023-04-08T04:13:57.087Z,103081.47
2023-04-08T04:14:58.938Z,103084.13
2023-04-08T04:16:00.786Z,103091.34
2023-04-08T04:17:02.568Z,103090.47
2023-04-08T04:18:04.387Z,103086.94
2023-04-08T04:19:06.474Z,103094.09
2023-04-08T04:20:08.767Z,103094.97
2023-04-08T04:21:10.768Z,103094.09
2023-04-08T04:22:12.614Z,103091.41
2023-04-08T04:23:14.415Z,103092.34
2023-04-08T04:24:16.307Z,103084.34
2023-04-08T04:25:18.199Z,103082.88
2023-04-08T04:26:19.988Z,103091.50
2023-04-08T04:27:21.766Z,103085.28
2023-04-08T04:28:23.588Z,103095.97
2023-04-08T04:29:25.400Z,103093.59
2023-04-08T04:30:27.818Z,103093.47
2023-04-08T04:31:29.723Z,103092.53
2023-04-08T04:32:31.547Z,103093.31
2023-04-08T04:33:33.677Z,103095.13
2023-04-08T04:34:35.729Z,103097.88
2023-04-08T04:35:39.254Z,103097.81
2023-04-08T04:36:41.541Z,103093.59
2023-04-08T04:37:43.392Z,103094.25
2023-04-08T04:38:46.852Z,103091.69
2023-04-08T04:39:50.552Z,103099.59
2023-04-08T04:40:52.323Z,103102.28
2023-04-08T04:41:54.100Z,103103.22
2023-04-08T04:42:55.923Z,103100.56
2023-04-08T04:43:57.705Z,103103.22
2023-04-08T04:44:59.859Z,103093.47
2023-04-08T04:46:02.423Z,103094.44
2023-04-08T04:47:04.429Z,103090.81
2023-04-08T04:48:06.528Z,103095.31
2023-04-08T04:49:08.415Z,103089.97
2023-04-08T04:50:10.453Z,103098.84
2023-04-08T04:51:12.307Z,103097.03
2023-04-08T04:52:14.142Z,103083.31
2023-04-08T04:53:15.989Z,103094.44
2023-04-08T04:54:17.762Z,103089.09
2023-04-08T04:55:19.787Z,103091.69
2023-04-08T04:56:21.692Z,103089.09
2023-04-08T04:57:23.524Z,103076.13
2023-04-08T04:58:25.595Z,103092.72
2023-04-08T04:59:27.691Z,103088.25
2023-04-08T05:00:29.562Z,103091.75
2023-04-08T05:01:31.457Z,103084.09
2023-04-08T05:02:33.501Z,103092.72
2023-04-08T05:03:35.431Z,103090.97
2023-04-08T05:04:37.497Z,103092.72
2023-04-08T05:05:39.612Z,103093.59
2023-04-08T05:06:41.450Z,103096.25
2023-04-08T05:07:43.261Z,103093.66
2023-04-08T05:08:45.155Z,103069.41
2023-04-08T05:09:46.919Z,103102.56
2023-04-08T05:10:51.003Z,103098.06
2023-04-08T05:11:52.842Z,103095.31
2023-04-08T05:12:54.631Z,103093.59
2023-04-08T05:13:56.444Z,103106.94
2023-04-08T05:14:59.576Z,103103.41
2023-04-08T05:16:01.529Z,103095.31
2023-04-08T05:17:03.470Z,103105.13
2023-04-08T05:18:05.769Z,103096.16
2023-04-08T05:19:07.634Z,103091.69
2023-04-08T05:20:09.876Z,103099.78
2023-04-08T05:21:11.666Z,103100.66
2023-04-08T05:22:13.616Z,103098.13
2023-04-08T05:23:15.756Z,103081.47
2023-04-08T05:24:17.653Z,103096.16
2023-04-08T05:25:19.866Z,103094.34
2023-04-08T05:26:21.893Z,103100.78
2023-04-08T05:27:23.759Z,103093.72
2023-04-08T05:28:25.614Z,103108.56
2023-04-08T05:29:27.688Z,103107.63
2023-04-08T05:30:29.515Z,103099.59
2023-04-08T05:31:31.381Z,103102.28
2023-04-08T05:32:33.356Z,103098.66
2023-04-08T05:33:35.169Z,103108.41
2023-04-08T05:34:36.968Z,103102.28
2023-04-08T05:35:38.733Z,103106.50
2023-04-08T05:36:40.945Z,103110.06
2023-04-08T05:37:42.805Z,103104.72
2023-04-08T05:38:44.619Z,103094.84
2023-04-08T05:39:46.408Z,103101.16
2023-04-08T05:40:48.383Z,103077.63
2023-04-08T05:41:50.234Z,103093.09
2023-04-08T05:42:52.028Z,103093.94
2023-04-08T05:43:53.928Z,103093.94
2023-04-08T05:44:56.017Z,103091.19
2023-04-08T05:45:57.791Z,103084.00
2023-04-08T05:47:00.616Z,103097.38
2023-04-08T05:48:02.529Z,103093.75
2023-04-08T05:49:04.533Z,103084.25
2023-04-08T05:50:07.046Z,103099.13
2023-04-08T05:51:17.981Z,103099.88
2023-04-08T05:52:19.908Z,103098.94
2023-04-08T05:53:21.682Z,103095.31
2023-04-08T05:54:23.511Z,103094.47
2023-04-08T05:55:25.432Z,103099.81
2023-04-08T05:56:27.352Z,103091.69
2023-04-08T05:57:29.096Z,103102.38
2023-04-08T05:58:30.890Z,103097.03
2023-04-08T05:59:32.728Z,103096.19
2023-04-08T06:00:34.528Z,103100.59
2023-04-08T06:01:36.648Z,103099.72
2023-04-08T06:02:39.263Z,103084.97
2023-04-08T06:03:41.337Z,103083.25
2023-04-08T06:04:43.433Z,103095.13
2023-04-08T06:05:45.318Z,103092.47
2023-04-08T06:06:47.079Z,103100.50
2023-04-08T06:07:48.892Z,103089.78
2023-04-08T06:08:51.065Z,103082.88
2023-04-08T06:09:52.893Z,103094.13
2023-04-08T06:10:54.669Z,103101.19
2023-04-08T06:11:57.552Z,103101.13
2023-04-08T06:12:59.442Z,103094.88
2023-04-08T06:14:01.381Z,103080.84
2023-04-08T06:15:04.554Z,103101.53
2023-04-08T06:16:20.376Z,103096.38
2023-04-08T06:17:23.145Z,103101.00
2023-04-08T06:18:25.057Z,103104.44
2023-04-08T06:19:26.842Z,103099.09
2023-04-08T06:20:28.734Z,103114.00
2023-04-08T06:21:30.596Z,103094.09
2023-04-08T06:22:32.620Z,103103.91
2023-04-08T06:23:34.616Z,103110.03
2023-04-08T06:24:36.387Z,103096.66
2023-04-08T06:25:38.414Z,103106.84
2023-04-08T06:26:40.670Z,103102.25
2023-04-08T06:27:42.523Z,103110.00
2023-04-08T06:28:44.299Z,103108.97
2023-04-08T06:29:46.260Z,103108.69
2023-04-08T06:30:48.036Z,103106.69
2023-04-08T06:31:50.744Z,103098.16
2023-04-08T06:32:52.647Z,103106.31
2023-04-08T06:33:55.952Z,103107.88
2023-04-08T06:34:57.719Z,103112.97
2023-04-08T06:36:06.856Z,103111.06
2023-04-08T06:37:08.719Z,103113.44
2023-04-08T06:38:10.494Z,103118.63
2023-04-08T06:39:12.436Z,103106.91
2023-04-08T06:40:14.268Z,103118.28
2023-04-08T06:41:16.133Z,103111.97
2023-04-08T06:42:17.936Z,103111.81
2023-04-08T06:43:41.151Z,103112.19
2023-04-08T06:44:43.000Z,103098.97
2023-04-08T06:45:44.810Z,103116.47
2023-04-08T06:46:46.836Z,103108.63
2023-04-08T06:47:48.826Z,103089.50
2023-04-08T06:48:50.852Z,103092.66
2023-04-08T06:49:52.968Z,103109.91
2023-04-08T06:50:59.595Z,103108.16
2023-04-08T06:52:01.836Z,103109.63
2023-04-08T06:53:03.643Z,103113.91
2023-04-08T06:54:05.392Z,103103.69
2023-04-08T06:55:07.409Z,103112.97
2023-04-08T06:56:09.287Z,103115.56
2023-04-08T06:57:11.904Z,103111.81
2023-04-08T06:58:13.718Z,103116.22
2023-04-08T06:59:15.615Z,103102.16
2023-04-08T07:00:17.750Z,103114.50
2023-04-08T07:01:19.552Z,103096.03
2023-04-08T07:02:22.716Z,103117.66
2023-04-08T07:03:24.996Z,103101.84
2023-04-08T07:04:27.032Z,103102.94
2023-04-08T07:05:28.855Z,103108.09
2023-04-08T07:06:30.762Z,103119.31
2023-04-08T07:07:32.528Z,103120.06
2023-04-08T07:08:34.415Z,103114.72
2023-04-08T07:09:37.005Z,103116.44
2023-04-08T07:10:38.888Z,103119.97
2023-04-08T07:11:41.029Z,103114.53
2023-04-08T07:12:42.816Z,103119.88
2023-04-08T07:13:44.603Z,103125.13
2023-04-08T07:14:46.454Z,103123.31
2023-04-08T07:15:48.351Z,103115.28
2023-04-08T07:16:50.433Z,103124.94
2023-04-08T07:17:52.399Z,103124.09
2023-04-08T07:18:54.361Z,103117.19
2023-04-08T07:19:57.108Z,103122.25
2023-04-08T07:21:00.975Z,103111.53
2023-04-08T07:22:02.737Z,103117.66
2023-04-08T07:23:05.159Z,103123.97
2023-04-08T07:24:07.310Z,103119.38
2023-04-08T07:25:09.661Z,103124.84
2023-04-08T07:26:11.556Z,103128.31
2023-04-08T07:27:13.302Z,103136.34
2023-04-08T07:28:15.304Z,103133.66
2023-04-08T07:29:17.122Z,103132.72
2023-04-08T07:30:19.398Z,103130.09
2023-04-08T07:31:21.447Z,103123.78
2023-04-08T07:32:23.769Z,103123.69
2023-04-08T07:33:26.539Z,103116.88
2023-04-08T07:34:28.349Z,103096.72
2023-04-08T07:35:32.099Z,103127.16
2023-04-08T07:36:33.957Z,103113.16
2023-04-08T07:37:35.811Z,103116.69
2023-04-08T07:38:38.636Z,103122.75
2023-04-08T07:39:40.544Z,103123.50
2023-04-08T07:40:42.341Z,103120.81
2023-04-08T07:41:44.220Z,103127.06
2023-04-08T07:42:46.081Z,103123.50
2023-04-08T07:43:48.029Z,103119.88
2023-04-08T07:44:49.834Z,103122.56
2023-04-08T07:45:51.688Z,103123.44
2023-04-08T07:46:53.495Z,103119.88
2023-04-08T07:47:55.720Z,103104.38
2023-04-08T07:48:57.540Z,103124.19
2023-04-08T07:49:59.387Z,103124.19
2023-04-08T07:51:11.026Z,103124.19
2023-04-08T07:52:13.384Z,103124.84
2023-04-08T07:53:15.916Z,103124.00
2023-04-08T07:54:17.900Z,103119.59
2023-04-08T07:55:19.762Z,103122.47
2023-04-08T07:56:22.482Z,103108.47
2023-04-08T07:57:24.578Z,103130.19
2023-04-08T07:58:26.559Z,103127.53
2023-04-08T07:59:29.239Z,103115.47
2023-04-08T08:00:33.173Z,103129.34
2023-04-08T08:01:35.976Z,103127.44
2023-04-08T08:02:37.941Z,103127.44
2023-04-08T08:03:39.898Z,103126.75
2023-04-08T08:04:41.914Z,103129.16
2023-04-08T08:05:44.050Z,103109.13
2023-04-08T08:06:47.652Z,103123.88
2023-04-08T08:07:50.531Z,103125.59
2023-04-08T08:08:52.358Z,103119.28
2023-04-08T08:09:54.178Z,103121.00
2023-04-08T08:10:56.076Z,103116.59
2023-04-08T08:11:57.922Z,103132.59
2023-04-08T08:12:59.775Z,103123.81
2023-04-08T08:14:01.740Z,103125.41
2023-04-08T08:15:04.163Z,103121.00
2023-04-08T08:16:09.258Z,103124.56
2023-04-08T08:17:12.794Z,103126.16
2023-04-08T08:18:14.651Z,103131.53
2023-04-08T08:19:16.650Z,103127.06
2023-04-08T08:20:18.603Z,103131.53
2023-04-08T08:21:20.552Z,103126.16
2023-04-08T08:22:22.430Z,103124.44
2023-04-08T08:23:24.185Z,103128.00
2023-04-08T08:24:26.138Z,103129.72
2023-04-08T08:25:28.072Z,103121.69
2023-04-08T08:26:29.885Z,103126.16
2023-04-08T08:27:31.820Z,103125.22
2023-04-08T08:28:33.960Z,103123.59
2023-04-08T08:29:37.135Z,103133.25
2023-04-08T08:30:39.145Z,103131.34
2023-04-08T08:31:41.123Z,103128.66
2023-04-08T08:32:43.077Z,103131.34
2023-04-08T08:33:44.869Z,103130.38
2023-04-08T08:34:46.728Z,103125.00
2023-04-08T08:35:48.700Z,103129.53
2023-04-08T08:36:51.090Z,103118.25
2023-04-08T08:37:52.878Z,103122.72
2023-04-08T08:38:54.920Z,103114.88
2023-04-08T08:39:56.674Z,103126.72
2023-04-08T08:40:59.243Z,103126.72
2023-04-08T08:42:01.062Z,103133.94
2023-04-08T08:43:03.019Z,103131.13
2023-04-08T08:44:08.818Z,103129.41
2023-04-08T08:45:11.021Z,103138.25
2023-04-08T08:46:17.595Z,103136.50
2023-04-08T08:47:19.450Z,103139.06
2023-04-08T08:48:21.385Z,103127.88
2023-04-08T08:49:23.932Z,103126.72
2023-04-08T08:50:25.997Z,103133.69
2023-04-08T08:51:29.719Z,103136.38
2023-04-08T08:52:31.572Z,103132.72
2023-04-08T08:53:35.870Z,103132.72
2023-04-08T08:54:38.343Z,103116.31
2023-04-08T08:56:05.459Z,103121.47
2023-04-08T08:57:02.732Z,103133.19
2023-04-08T08:58:04.898Z,103137.69
2023-04-08T08:59:06.696Z,103122.00
2023-04-08T09:00:09.154Z,103132.53
2023-04-08T09:01:35.789Z,103129.47
2023-04-08T09:02:37.902Z,103124.09
2023-04-08T09:03:39.990Z,103129.53
2023-04-08T09:04:57.548Z,103123.41
2023-04-08T09:06:01.443Z,103131.19
2023-04-08T09:07:11.105Z,103126.78
2023-04-08T09:08:35.467Z,103126.47
2023-04-08T09:09:51.328Z,103122.72
2023-04-08T09:10:54.533Z,103110.00
2023-04-08T09:12:04.659Z,103121.22
2023-04-08T09:13:06.589Z,103088.34
2023-04-08T09:14:22.467Z,103115.94
2023-04-08T09:15:24.333Z,103122.94
2023-04-08T09:16:26.968Z,103110.47
2023-04-08T09:17:39.824Z,103106.91
2023-04-08T09:18:44.712Z,103115.72
2023-04-08T09:20:09.768Z,103119.09
2023-04-08T09:21:19.393Z,103113.72
2023-04-08T09:22:21.310Z,103107.69
2023-04-08T09:23:23.140Z,103110.28
2023-04-08T09:24:30.439Z,103096.59
2023-04-08T09:25:34.041Z,103097.34
2023-04-08T09:26:37.690Z,103097.81
2023-04-08T09:27:39.588Z,103103.19
2023-04-08T09:28:43.049Z,103104.91
2023-04-08T09:29:44.866Z,103104.03
2023-04-08T09:30:47.026Z,103103.38
2023-04-08T09:31:54.566Z,103119.28
2023-04-08T09:32:58.039Z,103105.75
2023-04-08T09:34:17.532Z,103105.66
2023-04-08T09:35:20.530Z,103100.97
2023-04-08T09:36:22.944Z,103101.06
2023-04-08T09:37:24.721Z,103096.09
2023-04-08T09:38:27.309Z,103095.78
2023-04-08T09:39:29.147Z,103103.84
2023-04-08T09:40:35.954Z,103092.34
2023-04-08T09:41:39.492Z,103089.97
2023-04-08T09:42:45.237Z,103092.25
2023-04-08T09:43:56.925Z,103091.22
2023-04-08T09:45:01.064Z,103097.41
2023-04-08T09:46:06.171Z,103092.06
2023-04-08T09:47:19.115Z,103087.66
2023-04-08T09:48:30.779Z,103077.00
2023-04-08T09:49:44.910Z,103084.75
2023-04-08T09:50:51.210Z,103077.78
2023-04-08T09:52:04.083Z,103082.00
2023-04-08T09:53:15.723Z,103079.59
2023-04-08T09:54:23.269Z,103088.22
2023-04-08T09:55:28.348Z,103069.75
2023-04-08T09:56:36.267Z,103081.25
2023-04-08T09:57:51.558Z,103062.94
2023-04-08T09:58:59.389Z,103078.34
2023-04-08T10:00:09.081Z,103066.75
2023-04-08T10:01:25.039Z,103075.56
2023-04-08T10:02:33.492Z,103053.94
2023-04-08T10:03:50.334Z,103073.63
2023-04-08T10:04:54.593Z,103061.59
2023-04-08T10:05:58.634Z,103048.56
2023-04-08T10:07:06.553Z,103065.03
2023-04-08T10:08:08.620Z,103063.09
2023-04-08T10:09:11.400Z,103067.63
2023-04-08T10:10:13.432Z,103062.53
2023-04-08T10:11:16.681Z,103064.94
2023-04-08T10:12:19.136Z,103062.25
2023-04-08T10:13:21.515Z,103056.00
2023-04-08T10:14:23.318Z,103063.09
2023-04-08T10:15:32.504Z,103043.97
2023-04-08T10:16:34.593Z,103050.66
2023-04-08T10:17:37.035Z,103031.16
2023-04-08T10:18:39.554Z,103050.84
2023-04-08T10:19:42.053Z,103053.31
2023-04-08T10:20:45.951Z,103059.44
2023-04-08T10:21:51.035Z,103057.53
2023-04-08T10:22:52.885Z,103057.53
2023-04-08T10:24:06.445Z,103055.03
2023-04-08T10:25:17.602Z,103053.59
2023-04-08T10:26:42.306Z,103047.91
2023-04-08T10:27:45.441Z,103052.31
2023-04-08T10:28:47.228Z,103051.53
2023-04-08T10:29:49.053Z,103044.56
2023-04-08T10:30:55.680Z,103054.44
2023-04-08T10:31:57.876Z,103054.34
2023-04-08T10:33:00.912Z,103051.66
2023-04-08T10:34:19.324Z,103049.63
2023-04-08T10:35:30.612Z,103047.72
2023-04-08T10:36:32.801Z,103050.50
2023-04-08T10:37:34.679Z,103052.31
2023-04-08T10:38:36.554Z,103043.06
2023-04-08T10:39:38.810Z,103041.78
2023-04-08T10:40:42.820Z,103044.47
2023-04-08T10:41:48.756Z,103041.69
2023-04-08T10:42:57.746Z,103039.75
2023-04-08T10:43:59.520Z,103042.34
2023-04-08T10:45:02.254Z,103046.00
2023-04-08T10:46:05.089Z,103032.00
2023-04-08T10:47:07.640Z,103048.69
2023-04-08T10:48:15.486Z,103045.03
2023-04-08T10:49:17.773Z,103044.84
2023-04-08T10:50:21.408Z,103043.97
2023-04-08T10:51:23.852Z,103041.28
2023-04-08T10:52:27.596Z,103040.44
2023-04-08T10:53:34.684Z,103036.78
2023-04-08T10:54:38.526Z,103034.84
2023-04-08T10:55:40.417Z,103033.88
2023-04-08T10:56:50.444Z,103034.84
2023-04-08T10:57:53.340Z,103033.78
2023-04-08T10:58:56.613Z,103021.31
2023-04-08T10:59:58.548Z,103028.59
2023-04-08T11:01:07.914Z,103032.03
2023-04-08T11:02:14.722Z,103034.66
2023-04-08T11:03:17.057Z,103032.72
2023-04-08T11:04:19.752Z,103029.16
2023-04-08T11:05:23.471Z,103034.66
2023-04-08T11:06:25.695Z,103026.59
2023-04-08T11:07:27.802Z,103010.31
2023-04-08T11:08:32.924Z,103029.28
2023-04-08T11:09:35.416Z,103030.03
2023-04-08T11:10:39.058Z,103034.53
2023-04-08T11:11:45.784Z,103037.22
2023-04-08T11:12:48.205Z,103018.75
2023-04-08T11:13:54.016Z,103031.00
2023-04-08T11:14:56.291Z,103041.53
2023-04-08T11:16:00.512Z,103029.91
2023-04-08T11:17:05.890Z,103029.06
2023-04-08T11:18:09.202Z,103028.94
2023-04-08T11:19:13.976Z,103031.63
2023-04-08T11:20:16.102Z,103024.97
2023-04-08T11:21:18.022Z,103029.81
2023-04-08T11:22:21.201Z,103030.78
2023-04-08T11:23:25.343Z,103029.91
2023-04-08T11:24:27.324Z,103020.88
2023-04-08T11:25:29.800Z,103020.06
2023-04-08T11:26:31.875Z,103017.44
2023-04-08T11:27:34.526Z,103026.16
2023-04-08T11:28:36.736Z,103025.28
2023-04-08T11:29:38.773Z,103029.69
2023-04-08T11:30:41.780Z,103024.34
2023-04-08T11:31:44.226Z,103018.97
2023-04-08T11:32:46.610Z,103024.25
2023-04-08T11:33:50.327Z,103018.97
2023-04-08T11:34:53.500Z,103021.56
2023-04-08T11:35:55.525Z,103023.28
2023-04-08T11:36:58.708Z,103012.75
2023-04-08T11:38:01.056Z,103016.59
2023-04-08T11:39:07.686Z,103014.34
2023-04-08T11:40:13.412Z,103013.38
2023-04-08T11:41:16.332Z,103013.28
2023-04-08T11:42:31.918Z,103007.84
2023-04-08T11:43:33.823Z,103013.09
2023-04-08T11:44:35.786Z,103013.09
2023-04-08T11:45:42.521Z,103015.09
2023-04-08T11:46:57.379Z,103002.63
2023-04-08T11:47:59.381Z,103012.13
2023-04-08T11:49:06.673Z,102997.47
2023-04-08T11:50:09.512Z,103008.69
2023-04-08T11:51:12.556Z,103000.63
2023-04-08T11:52:14.854Z,103003.31
2023-04-08T11:53:21.478Z,103002.47
2023-04-08T11:54:30.328Z,103008.69
2023-04-08T11:55:33.453Z,102986.13
2023-04-08T11:56:47.129Z,102998.16
2023-04-08T11:57:49.007Z,103004.81
2023-04-08T11:58:52.074Z,103001.38
2023-04-08T11:59:53.850Z,103003.09
2023-04-08T12:00:55.633Z,102989.22
2023-04-08T12:01:57.718Z,102994.28
2023-04-08T12:02:59.726Z,102994.28
2023-04-08T12:04:02.544Z,102985.69
2023-04-08T12:05:04.892Z,102995.16
2023-04-08T12:06:08.850Z,102986.16